createdAt,value
2024-01-22T00:01:27.164Z,101435.16
2024-01-22T00:03:54.690Z,101418.66
2024-01-22T00:06:22.284Z,101418.78
2024-01-22T00:08:49.811Z,101391.94
2024-01-22T00:11:17.395Z,101384.91
2024-01-22T00:13:46.239Z,101387.31
2024-01-22T00:16:14.027Z,101379.69
2024-01-22T00:18:41.621Z,101375.16
2024-01-22T00:21:09.469Z,101370.69
2024-01-22T00:23:36.963Z,101366.56
2024-01-22T00:26:04.689Z,101364.50
2024-01-22T00:28:32.228Z,101364.31
2024-01-22T00:31:01.042Z,101372.56
2024-01-22T00:33:28.659Z,101349.97
2024-01-22T00:35:56.551Z,101336.00
2024-01-22T00:38:24.111Z,101344.41
2024-01-22T00:40:51.681Z,101317.13
2024-01-22T00:43:19.268Z,101316.97
2024-01-22T00:45:46.830Z,101306.59
2024-01-22T00:48:15.772Z,101305.94
2024-01-22T00:50:43.663Z,101315.53
2024-01-22T00:53:11.218Z,101315.78
2024-01-22T00:55:38.833Z,101312.41
2024-01-22T00:58:06.891Z,101298.97
2024-01-22T01:00:34.884Z,101305.84
2024-01-22T01:03:02.513Z,101297.19
2024-01-22T01:05:31.383Z,101286.69
2024-01-22T01:07:58.953Z,101284.47
2024-01-22T01:10:26.660Z,101268.00
2024-01-22T01:12:54.164Z,101273.81
2024-01-22T01:15:23.318Z,101258.91
2024-01-22T01:17:50.864Z,101258.91
2024-01-22T01:20:18.858Z,101241.16
2024-01-22T01:22:47.729Z,101241.72
2024-01-22T01:25:16.148Z,101236.44
2024-01-22T01:27:43.674Z,101225.41
2024-01-22T01:30:12.472Z,101228.03
2024-01-22T01:32:40.203Z,101223.94
2024-01-22T01:35:08.581Z,101226.09
2024-01-22T01:37:36.558Z,101219.88
2024-01-22T01:40:06.544Z,101217.84
2024-01-22T01:42:34.100Z,101220.53
2024-01-22T01:45:01.697Z,101212.94
2024-01-22T01:47:29.245Z,101213.63
2024-01-22T01:49:56.818Z,101210.59
2024-01-22T01:52:24.581Z,101207.88
2024-01-22T01:54:53.780Z,101197.19
2024-01-22T01:57:24.063Z,101190.09
2024-01-22T01:59:52.907Z,101180.78
2024-01-22T02:02:21.397Z,101187.41
2024-01-22T02:04:48.995Z,101179.16
2024-01-22T02:07:17.496Z,101166.63
2024-01-22T02:09:49.545Z,101150.16
2024-01-22T02:12:18.635Z,101145.50
2024-01-22T02:14:50.955Z,101134.69
2024-01-22T02:17:19.016Z,101134.59
2024-01-22T02:19:47.333Z,101127.69
2024-01-22T02:22:14.971Z,101118.75
2024-01-22T02:24:44.385Z,101100.78
2024-01-22T02:27:12.418Z,101101.59
2024-01-22T02:29:40.001Z,101100.47
2024-01-22T02:32:07.852Z,101101.06
2024-01-22T02:34:35.429Z,101093.88
2024-01-22T02:37:02.989Z,101092.84
2024-01-22T02:39:30.996Z,101098.72
2024-01-22T02:42:00.319Z,101074.66
2024-01-22T02:44:27.904Z,101075.91
2024-01-22T02:46:55.373Z,101071.03
2024-01-22T02:49:23.129Z,101069.25
2024-01-22T02:51:50.785Z,101064.69
2024-01-22T02:54:18.371Z,101063.69
2024-01-22T02:56:46.014Z,101075.63
2024-01-22T02:59:15.035Z,101067.59
2024-01-22T03:01:42.601Z,101063.97
2024-01-22T03:04:10.410Z,101041.38
2024-01-22T03:06:39.890Z,101042.13
2024-01-22T03:09:07.729Z,101044.63
2024-01-22T03:11:35.250Z,101047.25
2024-01-22T03:14:02.884Z,101027.66
2024-01-22T03:16:31.713Z,101014.38
2024-01-22T03:19:00.353Z,101028.50
2024-01-22T03:21:27.988Z,101018.78
2024-01-22T03:23:55.536Z,101010.94
2024-01-22T03:26:24.022Z,101002.91
2024-01-22T03:28:52.202Z,101003.66
2024-01-22T03:31:24.607Z,101017.78
2024-01-22T03:33:54.005Z,101025.53
2024-01-22T03:36:25.688Z,101012.56
2024-01-22T03:38:53.805Z,100990.94
2024-01-22T03:41:21.385Z,100985.50
2024-01-22T03:43:48.951Z,100990.44
2024-01-22T03:46:17.503Z,100990.25
2024-01-22T03:48:45.135Z,100985.13
2024-01-22T03:51:14.406Z,100983.88
2024-01-22T03:53:41.983Z,100968.38
2024-01-22T03:56:09.810Z,100961.41
2024-01-22T03:58:37.693Z,100964.44
2024-01-22T04:01:05.451Z,100963.41
2024-01-22T04:03:33.663Z,100956.19
2024-01-22T04:06:01.630Z,100954.84
2024-01-22T04:08:30.489Z,100936.66
2024-01-22T04:10:57.964Z,100935.94
2024-01-22T04:13:32.407Z,100950.16
2024-01-22T04:16:02.918Z,100943.03
2024-01-22T04:18:30.774Z,100931.56
2024-01-22T04:20:58.841Z,100934.28
2024-01-22T04:23:26.482Z,100929.78
2024-01-22T04:25:55.404Z,100935.22
2024-01-22T04:28:22.882Z,100902.59
2024-01-22T04:30:50.356Z,100893.69
2024-01-22T04:33:17.971Z,100893.38
2024-01-22T04:35:45.823Z,100898.00
2024-01-22T04:38:13.537Z,100889.19
2024-01-22T04:40:41.100Z,100891.91
2024-01-22T04:43:09.990Z,100868.69
2024-01-22T04:45:37.511Z,100849.03
2024-01-22T04:48:05.448Z,100839.50
2024-01-22T04:50:33.016Z,100837.94
2024-01-22T04:53:00.452Z,100842.94
2024-01-22T04:55:31.321Z,100899.34
2024-01-22T04:58:02.051Z,100884.88
2024-01-22T05:00:33.278Z,100892.94
2024-01-22T05:03:05.499Z,100886.03
2024-01-22T05:05:33.413Z,100866.66
2024-01-22T05:08:01.028Z,100835.81
2024-01-22T05:10:28.643Z,100824.69
2024-01-22T05:12:56.439Z,100770.59
2024-01-22T05:15:24.013Z,100724.56
2024-01-22T05:17:53.190Z,100723.97
2024-01-22T05:20:20.864Z,100695.31
2024-01-22T05:22:48.440Z,100757.63
2024-01-22T05:25:16.411Z,100766.22
2024-01-22T05:27:46.611Z,100813.91
2024-01-22T05:30:15.680Z,100789.53
2024-01-22T05:32:48.030Z,100786.19
2024-01-22T05:35:17.511Z,100766.38
2024-01-22T05:37:45.264Z,100751.84
2024-01-22T05:40:14.824Z,100715.94
2024-01-22T05:42:43.856Z,100708.72
2024-01-22T05:45:12.990Z,100724.31
2024-01-22T05:47:43.721Z,100709.47
2024-01-22T05:50:11.675Z,100716.59
2024-01-22T05:52:40.656Z,100703.06
2024-01-22T05:55:09.298Z,100708.50
2024-01-22T05:57:36.860Z,100714.47
2024-01-22T06:00:10.672Z,100703.66
2024-01-22T06:02:40.081Z,100686.69
2024-01-22T06:05:08.416Z,100683.38
2024-01-22T06:07:37.216Z,100657.44
2024-01-22T06:10:09.058Z,100644.72
2024-01-22T06:12:37.130Z,100571.06
2024-01-22T06:15:05.699Z,100613.81
2024-01-22T06:17:34.175Z,100632.84
2024-01-22T06:20:02.676Z,100632.00
2024-01-22T06:22:31.313Z,100620.22
2024-01-22T06:24:58.887Z,100619.75
2024-01-22T06:27:28.000Z,100646.06
2024-01-22T06:29:58.921Z,100629.38
2024-01-22T06:32:27.931Z,100623.66
2024-01-22T06:34:57.225Z,100643.06
2024-01-22T06:37:25.499Z,100641.34
2024-01-22T06:39:53.726Z,100649.09
2024-01-22T06:42:27.785Z,100660.06
2024-01-22T06:45:04.213Z,100651.59
2024-01-22T06:47:32.016Z,100642.38
2024-01-22T06:50:01.385Z,100640.50
2024-01-22T06:52:29.005Z,100643.13
2024-01-22T06:54:57.233Z,100647.59
2024-01-22T06:57:24.913Z,100644.03
2024-01-22T06:59:56.028Z,100646.03
2024-01-22T07:02:27.996Z,100632.41
2024-01-22T07:04:57.187Z,100645.19
2024-01-22T07:07:25.286Z,100638.34
2024-01-22T07:09:53.069Z,100628.44
2024-01-22T07:12:21.999Z,100624.59
2024-01-22T07:14:49.811Z,100617.16
2024-01-22T07:17:20.556Z,100626.78
2024-01-22T07:19:49.873Z,100619.75
2024-01-22T07:22:18.476Z,100627.38
2024-01-22T07:24:49.583Z,100610.06
2024-01-22T07:27:17.490Z,100615.38
2024-01-22T07:29:45.370Z,100592.78
2024-01-22T07:32:13.619Z,100611.56
2024-01-22T07:34:41.362Z,100587.06
2024-01-22T07:37:10.397Z,100603.72
2024-01-22T07:39:38.083Z,100591.25
2024-01-22T07:42:06.166Z,100599.00
2024-01-22T07:44:59.391Z,100584.78
2024-01-22T07:47:27.508Z,100555.97
2024-01-22T07:49:55.381Z,100571.16
2024-01-22T07:52:25.048Z,100575.06
2024-01-22T07:54:52.783Z,100568.69
2024-01-22T07:57:20.460Z,100563.31
2024-01-22T07:59:48.611Z,100552.13
2024-01-22T08:02:16.702Z,100563.59
2024-01-22T08:04:44.501Z,100544.50
2024-01-22T08:07:12.494Z,100569.72
2024-01-22T08:09:42.232Z,100562.53
2024-01-22T08:12:09.950Z,100565.44
2024-01-22T08:14:38.082Z,100567.41
2024-01-22T08:17:06.221Z,100565.00
2024-01-22T08:19:36.024Z,100569.25
2024-01-22T08:22:04.130Z,100562.00
2024-01-22T08:24:32.141Z,100566.69
2024-01-22T08:27:02.247Z,100581.28
2024-01-22T08:29:29.946Z,100558.56
2024-01-22T08:31:57.633Z,100567.44
2024-01-22T08:34:25.489Z,100560.88
2024-01-22T08:36:53.475Z,100559.38
2024-01-22T08:39:21.342Z,100564.03
2024-01-22T08:41:49.216Z,100573.59
2024-01-22T08:44:18.566Z,100564.06
2024-01-22T08:46:46.684Z,100561.94
2024-01-22T08:49:14.635Z,100546.59
2024-01-22T08:51:43.994Z,100550.78
2024-01-22T08:54:11.783Z,100559.75
2024-01-22T08:56:39.688Z,100554.84
2024-01-22T08:59:11.421Z,100548.91
2024-01-22T09:01:40.787Z,100553.06
2024-01-22T09:04:08.408Z,100547.25
2024-01-22T09:06:39.376Z,100537.81
2024-01-22T09:09:10.689Z,100541.53
2024-01-22T09:11:38.541Z,100542.25
2024-01-22T09:14:06.290Z,100544.38
2024-01-22T09:16:33.962Z,100553.53
2024-01-22T09:19:05.329Z,100547.25
2024-01-22T09:21:34.612Z,100545.94
2024-01-22T09:24:02.686Z,100539.63
2024-01-22T09:26:30.397Z,100542.00
2024-01-22T09:28:58.171Z,100549.41
2024-01-22T09:31:26.019Z,100542.94
2024-01-22T09:33:55.367Z,100533.44
2024-01-22T09:36:24.645Z,100536.31
2024-01-22T09:38:52.609Z,100529.41
2024-01-22T09:41:20.704Z,100531.88
2024-01-22T09:43:49.741Z,100522.72
2024-01-22T09:46:17.510Z,100514.25
2024-01-22T09:48:45.771Z,100517.13
2024-01-22T09:51:15.187Z,100505.56
2024-01-22T09:53:48.792Z,100516.38
2024-01-22T09:56:20.985Z,100512.47
2024-01-22T09:58:57.027Z,100483.59
2024-01-22T10:01:25.620Z,100501.06
2024-01-22T10:03:58.695Z,100498.66
2024-01-22T10:06:29.409Z,100477.28
2024-01-22T10:09:01.579Z,100483.72
2024-01-22T10:11:29.658Z,100473.31
2024-01-22T10:13:57.996Z,100490.06
2024-01-22T10:16:26.523Z,100467.00
2024-01-22T10:18:58.989Z,100472.16
2024-01-22T10:21:27.970Z,100472.31
2024-01-22T10:24:04.919Z,100454.16
2024-01-22T10:26:38.357Z,100426.41
2024-01-22T10:29:17.351Z,100436.75
2024-01-22T10:31:56.319Z,100443.84
2024-01-22T10:34:25.385Z,100457.16
2024-01-22T10:37:08.401Z,100444.59
2024-01-22T10:40:37.895Z,100450.16
2024-01-22T10:43:25.770Z,100432.50
2024-01-22T10:45:58.388Z,100430.03
2024-01-22T10:48:38.062Z,100434.03
2024-01-22T10:51:13.862Z,100407.38
2024-01-22T10:53:46.492Z,100409.47
2024-01-22T10:59:09.454Z,100407.97
2024-01-22T11:01:38.465Z,100392.06
2024-01-22T11:04:12.165Z,100390.13
2024-01-22T11:06:43.939Z,100385.84
2024-01-22T11:09:13.627Z,100379.75
2024-01-22T11:11:44.588Z,100368.56
2024-01-22T11:14:12.321Z,100370.09
2024-01-22T11:16:40.440Z,100364.13
2024-01-22T11:19:09.323Z,100356.22
2024-01-22T11:21:39.786Z,100369.75
2024-01-22T11:24:13.885Z,100352.81
2024-01-22T11:27:03.310Z,100342.16
2024-01-22T11:29:31.751Z,100342.84
2024-01-22T11:32:01.511Z,100344.66
2024-01-22T11:34:47.166Z,100338.50
2024-01-22T11:37:34.298Z,100332.25
2024-01-22T11:40:02.350Z,100341.66
2024-01-22T11:42:32.503Z,100334.50
2024-01-22T11:45:13.366Z,100325.50
2024-01-22T11:47:43.183Z,100339.91
2024-01-22T11:50:12.308Z,100318.34
2024-01-22T11:52:40.404Z,100301.97
2024-01-22T11:55:10.078Z,100299.50
2024-01-22T11:57:41.320Z,100322.47
2024-01-22T12:00:20.915Z,100315.38
2024-01-22T12:02:51.302Z,100316.66
2024-01-22T12:05:20.965Z,100315.38
2024-01-22T12:07:53.048Z,100302.06
2024-01-22T12:10:22.689Z,100304.16
2024-01-22T12:12:53.518Z,100306.88
2024-01-22T12:15:22.822Z,100293.13
2024-01-22T12:17:51.590Z,100300.56
2024-01-22T12:20:20.535Z,100296.13
2024-01-22T12:22:56.696Z,100302.75
2024-01-22T12:25:24.410Z,100278.56
2024-01-22T12:27:53.870Z,100302.91
2024-01-22T12:30:21.897Z,100294.38
2024-01-22T12:32:54.273Z,100275.50
2024-01-22T12:35:23.832Z,100275.28
2024-01-22T12:37:53.362Z,100305.03
2024-01-22T12:40:21.720Z,100285.59
2024-01-22T12:42:51.987Z,100288.44
2024-01-22T12:45:23.140Z,100273.00
2024-01-22T12:47:51.313Z,100286.25
2024-01-22T12:50:20.256Z,100281.50
2024-01-22T12:52:49.032Z,100271.22
2024-01-22T12:55:17.532Z,100257.34
2024-01-22T12:57:46.468Z,100254.34
2024-01-22T13:00:16.962Z,100249.44
2024-01-22T13:02:46.422Z,100261.81
2024-01-22T13:05:14.904Z,100245.63
2024-01-22T13:07:42.661Z,100244.88
2024-01-22T13:10:10.714Z,100223.94
2024-01-22T13:12:38.544Z,100234.34
2024-01-22T13:15:08.507Z,100262.31
2024-01-22T13:17:36.284Z,100227.41
2024-01-22T13:20:07.609Z,100228.13
2024-01-22T13:22:36.395Z,100223.16
2024-01-22T13:25:05.912Z,100223.59
2024-01-22T13:27:37.068Z,100213.59
2024-01-22T13:30:06.040Z,100199.72
2024-01-22T13:32:35.357Z,100211.63
2024-01-22T13:35:04.241Z,100205.69
2024-01-22T13:37:34.738Z,100206.13
2024-01-22T13:40:06.416Z,100214.28
2024-01-22T13:42:34.326Z,100192.09
2024-01-22T13:45:02.095Z,100195.44
2024-01-22T13:47:37.270Z,100204.72
2024-01-22T13:50:07.796Z,100182.78
2024-01-22T13:52:37.178Z,100173.22
2024-01-22T13:55:06.591Z,100190.22
2024-01-22T13:57:34.423Z,100186.53
2024-01-22T14:00:03.306Z,100182.78
2024-01-22T14:02:32.164Z,100172.53
2024-01-22T14:05:01.365Z,100182.31
2024-01-22T14:07:29.431Z,100160.88
2024-01-22T14:09:58.769Z,100175.84
2024-01-22T14:12:26.729Z,100177.50
2024-01-22T14:14:54.865Z,100167.72
2024-01-22T14:17:22.641Z,100174.50
2024-01-22T14:19:50.434Z,100163.66
2024-01-22T14:22:21.393Z,100165.34
2024-01-22T14:24:50.035Z,100164.84
2024-01-22T14:27:20.339Z,100176.59
2024-01-22T14:29:49.819Z,100172.75
2024-01-22T14:32:18.045Z,100185.09
2024-01-22T14:34:46.003Z,100204.38
2024-01-22T14:37:15.602Z,100191.03
2024-01-22T14:39:46.067Z,100196.97
2024-01-22T14:42:13.709Z,100184.94
2024-01-22T14:45:09.708Z,100183.03
2024-01-22T14:47:40.641Z,100171.81
2024-01-22T14:50:12.159Z,100179.06
2024-01-22T14:55:26.445Z,100187.28
2024-01-22T14:57:54.354Z,100203.25
2024-01-22T15:00:24.001Z,100185.31
2024-01-22T15:02:52.085Z,100199.00
2024-01-22T15:05:20.202Z,100198.84
2024-01-22T15:07:48.876Z,100196.00
2024-01-22T15:10:17.210Z,100197.50
2024-01-22T15:12:45.102Z,100197.50
2024-01-22T15:15:13.467Z,100207.72
2024-01-22T15:17:43.303Z,100208.91
2024-01-22T15:20:12.762Z,100208.66
2024-01-22T15:22:40.511Z,100219.16
2024-01-22T15:25:10.456Z,100214.38
2024-01-22T15:27:38.169Z,100220.63
2024-01-22T15:30:07.663Z,100229.75
2024-01-22T15:32:36.468Z,100225.44
2024-01-22T15:35:08.055Z,100222.31
2024-01-22T15:37:38.385Z,100226.31
2024-01-22T15:40:07.473Z,100228.28
2024-01-22T15:42:35.827Z,100220.63
2024-01-22T15:45:07.518Z,100231.97
2024-01-22T15:47:35.844Z,100226.84
2024-01-22T15:50:03.832Z,100245.75
2024-01-22T15:52:32.922Z,100254.84
2024-01-22T15:55:00.625Z,100248.09
2024-01-22T15:57:28.845Z,100247.72
2024-01-22T15:59:57.209Z,100252.50
2024-01-22T16:02:24.813Z,100252.16
2024-01-22T16:04:52.740Z,100254.25
2024-01-22T16:07:22.785Z,100254.72
2024-01-22T16:09:52.423Z,100256.84
2024-01-22T16:12:20.206Z,100259.41
2024-01-22T16:14:48.107Z,100260.00
2024-01-22T16:17:16.149Z,100256.69
2024-01-22T16:19:43.955Z,100265.75
2024-01-22T16:22:11.979Z,100260.47
2024-01-22T16:24:40.070Z,100253.75
2024-01-22T16:27:10.758Z,100270.47
2024-01-22T16:29:39.636Z,100253.91
2024-01-22T16:32:07.673Z,100260.38
2024-01-22T16:34:36.364Z,100273.13
2024-01-22T16:37:04.822Z,100275.56
2024-01-22T16:39:38.840Z,100271.81
2024-01-22T16:42:07.456Z,100283.31
2024-01-22T16:44:36.716Z,100283.25
2024-01-22T16:47:05.009Z,100272.34
2024-01-22T16:49:32.967Z,100282.22
2024-01-22T16:52:02.364Z,100279.44
2024-01-22T16:54:30.013Z,100290.47
2024-01-22T16:56:58.819Z,100298.47
2024-01-22T16:59:26.338Z,100302.75
2024-01-22T17:01:57.556Z,100306.13
2024-01-22T17:04:27.787Z,100305.97
2024-01-22T17:07:05.176Z,100321.19
2024-01-22T17:09:32.991Z,100323.44
2024-01-22T17:12:02.162Z,100329.31
2024-01-22T17:14:31.574Z,100319.22
2024-01-22T17:17:01.221Z,100333.88
2024-01-22T17:19:29.839Z,100332.03
2024-01-22T17:21:57.619Z,100334.88
2024-01-22T17:24:28.057Z,100337.28
2024-01-22T17:26:55.864Z,100338.56
2024-01-22T17:29:24.020Z,100350.63
2024-01-22T17:31:51.594Z,100365.72
2024-01-22T17:34:20.860Z,100378.75
2024-01-22T17:36:49.562Z,100392.25
2024-01-22T17:39:19.226Z,100389.06
2024-01-22T17:41:46.895Z,100380.34
2024-01-22T17:44:15.410Z,100399.63
2024-01-22T17:46:44.857Z,100409.88
2024-01-22T17:49:12.632Z,100409.03
2024-01-22T17:51:41.562Z,100409.47
2024-01-22T17:54:09.869Z,100416.47
2024-01-22T17:56:40.033Z,100417.97
2024-01-22T17:59:07.650Z,100421.88
2024-01-22T18:01:35.211Z,100422.41
2024-01-22T18:04:02.819Z,100442.38
2024-01-22T18:06:30.489Z,100444.16
2024-01-22T18:09:00.183Z,100451.19
2024-01-22T18:11:28.095Z,100446.69
2024-01-22T18:13:55.889Z,100457.38
2024-01-22T18:16:23.451Z,100455.44
2024-01-22T18:18:51.450Z,100453.91
2024-01-22T18:21:19.325Z,100464.44
2024-01-22T18:23:46.965Z,100460.31
2024-01-22T18:26:16.057Z,100455.63
2024-01-22T18:28:43.952Z,100463.81
2024-01-22T18:31:12.884Z,100464.34
2024-01-22T18:33:42.397Z,100478.91
2024-01-22T18:36:10.303Z,100474.50
2024-01-22T18:38:38.058Z,100489.72
2024-01-22T18:41:05.951Z,100487.25
2024-01-22T18:43:34.798Z,100497.09
2024-01-22T18:46:09.550Z,100494.06
2024-01-22T18:48:41.472Z,100503.75
2024-01-22T18:51:09.124Z,100508.59
2024-01-22T18:53:37.235Z,100507.16
2024-01-22T18:56:05.286Z,100511.22
2024-01-22T18:58:32.855Z,100531.72
2024-01-22T19:01:02.063Z,100538.09
2024-01-22T19:03:30.930Z,100557.66
2024-01-22T19:06:01.782Z,100555.84
2024-01-22T19:08:29.628Z,100544.50
2024-01-22T19:10:57.252Z,100549.50
2024-01-22T19:13:24.809Z,100539.38
2024-01-22T19:15:52.368Z,100534.13
2024-01-22T19:18:21.426Z,100536.00
2024-01-22T19:20:49.344Z,100543.09
2024-01-22T19:23:16.969Z,100548.22
2024-01-22T19:25:44.878Z,100544.94
2024-01-22T19:28:13.308Z,100553.81
2024-01-22T19:30:40.828Z,100555.47
2024-01-22T19:33:08.483Z,100557.97
2024-01-22T19:35:37.352Z,100562.41
2024-01-22T19:38:05.203Z,100581.09
2024-01-22T19:40:34.576Z,100577.94
2024-01-22T19:43:03.417Z,100589.56
2024-01-22T19:45:33.890Z,100593.28
2024-01-22T19:48:01.700Z,100602.16
2024-01-22T19:50:30.127Z,100606.59
2024-01-22T19:52:59.449Z,100609.78
2024-01-22T19:55:26.929Z,100616.00
2024-01-22T19:57:53.695Z,100618.78
2024-01-22T20:00:21.755Z,100623.09
2024-01-22T20:02:49.559Z,100626.66
2024-01-22T20:05:17.249Z,100639.13
2024-01-22T20:07:46.310Z,100650.31
2024-01-22T20:10:15.480Z,100656.59
2024-01-22T20:12:43.015Z,100673.63
2024-01-22T20:15:11.516Z,100700.88
2024-01-22T20:17:39.200Z,100702.69
2024-01-22T20:20:08.546Z,100717.13
2024-01-22T20:22:36.142Z,100711.69
2024-01-22T20:25:04.030Z,100717.81
2024-01-22T20:27:32.963Z,100720.59
2024-01-22T20:30:00.538Z,100723.34
2024-01-22T20:32:28.307Z,100715.19
2024-01-22T20:34:58.260Z,100717.94
2024-01-22T20:37:26.404Z,100722.06
2024-01-22T20:39:54.048Z,100733.09
2024-01-22T20:42:24.695Z,100743.47
2024-01-22T20:44:54.178Z,100725.19
2024-01-22T20:47:21.857Z,100734.03
2024-01-22T20:49:49.573Z,100736.22
2024-01-22T20:52:17.210Z,100727.66
2024-01-22T20:54:44.762Z,100742.59
2024-01-22T20:57:12.570Z,100742.91
2024-01-22T20:59:40.052Z,100732.13
2024-01-22T21:02:08.967Z,100730.47
2024-01-22T21:04:36.607Z,100733.59
2024-01-22T21:07:04.698Z,100728.03
2024-01-22T21:09:33.801Z,100739.13
2024-01-22T21:12:01.845Z,100739.53
2024-01-22T21:14:30.954Z,100740.84
2024-01-22T21:16:58.805Z,100748.91
2024-01-22T21:19:28.311Z,100743.69
2024-01-22T21:21:55.916Z,100751.78
2024-01-22T21:24:24.038Z,100755.53
2024-01-22T21:26:51.699Z,100752.91
2024-01-22T21:29:19.710Z,100754.81
2024-01-22T21:31:47.753Z,100762.16
2024-01-22T21:34:15.386Z,100767.16
2024-01-22T21:36:44.276Z,100764.09
2024-01-22T21:39:13.791Z,100771.78
2024-01-22T21:41:41.416Z,100776.34
2024-01-22T21:44:09.019Z,100762.88
2024-01-22T21:46:36.579Z,100774.97
2024-01-22T21:49:04.400Z,100778.59
2024-01-22T21:51:32.141Z,100771.28
2024-01-22T21:54:01.133Z,100779.72
2024-01-22T21:56:29.886Z,100784.97
2024-01-22T21:58:58.081Z,100778.91
2024-01-22T22:01:25.953Z,100782.81
2024-01-22T22:03:53.998Z,100779.91
2024-01-22T22:06:24.585Z,100793.06
2024-01-22T22:08:53.170Z,100789.41
2024-01-22T22:11:22.194Z,100782.47
2024-01-22T22:13:50.712Z,100792.16
2024-01-22T22:16:18.314Z,100802.66
2024-01-22T22:18:47.153Z,100806.91
2024-01-22T22:21:15.069Z,100809.41
2024-01-22T22:23:42.739Z,100809.41
2024-01-22T22:26:10.391Z,100812.16
2024-01-22T22:28:40.447Z,100802.59
2024-01-22T22:31:08.870Z,100806.44
2024-01-22T22:33:36.602Z,100803.56
2024-01-22T22:36:04.713Z,100813.97
2024-01-22T22:38:32.399Z,100804.41
2024-01-22T22:40:59.949Z,100802.59
2024-01-22T22:43:27.501Z,100805.13
2024-01-22T22:46:00.679Z,100795.38
2024-01-22T22:48:28.417Z,100793.94
2024-01-22T22:50:56.099Z,100792.53
2024-01-22T22:53:23.726Z,100796.44
2024-01-22T22:55:51.245Z,100800.09
2024-01-22T22:58:18.950Z,100805.91
2024-01-22T23:00:46.749Z,100800.19
2024-01-22T23:03:15.818Z,100810.19
2024-01-22T23:05:43.574Z,100812.09
2024-01-22T23:08:11.122Z,100796.03
2024-01-22T23:10:38.638Z,100792.81
2024-01-22T23:13:06.263Z,100794.28
2024-01-22T23:15:33.996Z,100797.16
2024-01-22T23:18:01.674Z,100805.16
2024-01-22T23:20:30.649Z,100806.31
2024-01-22T23:22:58.415Z,100800.81
2024-01-22T23:25:30.392Z,100799.03
2024-01-22T23:27:57.913Z,100796.19
2024-01-22T23:30:25.995Z,100801.06
2024-01-22T23:32:53.710Z,100799.66
2024-01-22T23:35:21.748Z,100793.19
2024-01-22T23:37:52.871Z,100793.06
2024-01-22T23:40:20.431Z,100789.84
2024-01-22T23:42:47.904Z,100799.13
2024-01-22T23:45:15.591Z,100797.81
2024-01-22T23:47:43.152Z,100796.84
2024-01-22T23:50:11.936Z,100794.63
2024-01-22T23:52:39.455Z,100786.41
2024-01-22T23:55:11.074Z,100786.00
2024-01-22T23:57:38.643Z,100784.13
